sensor_id;sensor_type;location;lat;lon;timestamp;pressure;altitude;pressure_sealevel;temperature;humidity
62152;BME280;48139;47.474;19.034;2023-04-19T03:47:48;100221.94;;;11.58;67.20
62152;BME280;48139;47.474;19.034;2023-04-19T03:50:51;100221.94;;;11.58;67.20
62152;BME280;48139;47.474;19.034;2023-04-19T03:53:54;100226.16;;;11.12;68.45
62152;BME280;48139;47.474;19.034;2023-04-19T03:56:58;100219.09;;;11.12;68.74
62152;BME280;48139;47.474;19.034;2023-04-19T04:00:02;100230.37;;;11.14;67.85
62152;BME280;48139;47.474;19.034;2023-04-19T04:03:14;100226.06;;;11.13;69.79
62152;BME280;48139;47.474;19.034;2023-04-19T04:06:18;100233.00;;;11.14;69.84
62152;BME280;48139;47.474;19.034;2023-04-19T04:09:21;100223.28;;;11.16;69.78
62152;BME280;48139;47.474;19.034;2023-04-19T04:12:24;100225.12;;;11.14;71.59
62152;BME280;48139;47.474;19.034;2023-04-19T04:15:27;100225.91;;;11.16;70.17
62152;BME280;48139;47.474;19.034;2023-04-19T04:18:31;100225.53;;;11.24;68.41
62152;BME280;48139;47.474;19.034;2023-04-19T04:21:35;100226.50;;;11.21;68.47
62152;BME280;48139;47.474;19.034;2023-04-19T04:24:38;100219.31;;;11.25;67.89
62152;BME280;48139;47.474;19.034;2023-04-19T04:27:43;100220.88;;;11.29;70.66
62152;BME280;48139;47.474;19.034;2023-04-19T04:30:48;100220.63;;;11.33;70.50
62152;BME280;48139;47.474;19.034;2023-04-19T04:33:50;100217.00;;;11.36;69.62
62152;BME280;48139;47.474;19.034;2023-04-19T04:36:55;100220.31;;;11.40;71.41
62152;BME280;48139;47.474;19.034;2023-04-19T04:39:59;100220.16;;;11.43;70.15
62152;BME280;48139;47.474;19.034;2023-04-19T04:43:03;100224.31;;;11.47;70.56
62152;BME280;48139;47.474;19.034;2023-04-19T04:46:09;100208.50;;;11.48;69.23
62152;BME280;48139;47.474;19.034;2023-04-19T04:49:14;100216.31;;;11.65;69.57
62152;BME280;48139;47.474;19.034;2023-04-19T04:52:17;100215.81;;;11.75;69.60
62152;BME280;48139;47.474;19.034;2023-04-19T04:55:21;100211.53;;;11.89;65.74
62152;BME280;48139;47.474;19.034;2023-04-19T04:58:24;100217.88;;;12.01;62.79
62152;BME280;48139;47.474;19.034;2023-04-19T05:01:29;100209.59;;;12.08;63.74
62152;BME280;48139;47.474;19.034;2023-04-19T05:04:31;100209.25;;;12.15;62.34
62152;BME280;48139;47.474;19.034;2023-04-19T05:07:35;100206.63;;;12.30;60.38
62152;BME280;48139;47.474;19.034;2023-04-19T05:10:38;100198.47;;;12.35;60.74
62152;BME280;48139;47.474;19.034;2023-04-19T05:13:40;100206.22;;;12.52;58.48
62152;BME280;48139;47.474;19.034;2023-04-19T05:16:43;100203.56;;;12.68;56.94
62152;BME280;48139;47.474;19.034;2023-04-19T05:19:47;100202.03;;;12.93;57.45
62152;BME280;48139;47.474;19.034;2023-04-19T05:22:49;100204.19;;;13.17;56.34
62152;BME280;48139;47.474;19.034;2023-04-19T05:25:53;100203.31;;;13.30;55.22
62152;BME280;48139;47.474;19.034;2023-04-19T05:28:56;100200.78;;;13.43;54.48
62152;BME280;48139;47.474;19.034;2023-04-19T05:32:00;100204.56;;;13.53;54.68
62152;BME280;48139;47.474;19.034;2023-04-19T05:35:03;100201.06;;;13.81;53.46
62152;BME280;48139;47.474;19.034;2023-04-19T05:38:07;100200.00;;;13.98;51.94
62152;BME280;48139;47.474;19.034;2023-04-19T05:41:09;100195.00;;;14.34;50.30
62152;BME280;48139;47.474;19.034;2023-04-19T05:44:13;100201.19;;;14.47;49.65
62152;BME280;48139;47.474;19.034;2023-04-19T05:47:16;100195.06;;;14.74;49.65
62152;BME280;48139;47.474;19.034;2023-04-19T05:50:21;100192.66;;;15.09;48.11
62152;BME280;48139;47.474;19.034;2023-04-19T05:53:24;100187.28;;;15.48;46.69
62152;BME280;48139;47.474;19.034;2023-04-19T05:56:27;100198.47;;;15.64;45.79
62152;BME280;48139;47.474;19.034;2023-04-19T05:59:30;100195.38;;;15.70;46.17
62152;BME280;48139;47.474;19.034;2023-04-19T06:02:33;100192.75;;;15.70;45.48
62152;BME280;48139;47.474;19.034;2023-04-19T06:05:36;100190.75;;;15.74;45.37
62152;BME280;48139;47.474;19.034;2023-04-19T06:08:39;100191.56;;;15.49;46.52
62152;BME280;48139;47.474;19.034;2023-04-19T06:11:44;100192.22;;;15.40;47.69
62152;BME280;48139;47.474;19.034;2023-04-19T06:14:53;100189.59;;;15.40;46.28
62152;BME280;48139;47.474;19.034;2023-04-19T06:17:55;100194.34;;;15.48;47.55
62152;BME280;48139;47.474;19.034;2023-04-19T06:21:00;100192.66;;;15.59;46.36
62152;BME280;48139;47.474;19.034;2023-04-19T06:24:05;100190.13;;;15.58;46.37
62152;BME280;48139;47.474;19.034;2023-04-19T06:27:08;100185.78;;;15.57;46.91
62152;BME280;48139;47.474;19.034;2023-04-19T06:30:11;100187.50;;;15.58;46.60
62152;BME280;48139;47.474;19.034;2023-04-19T06:33:14;100190.03;;;15.59;47.25
62152;BME280;48139;47.474;19.034;2023-04-19T06:36:21;100183.53;;;15.76;46.84
62152;BME280;48139;47.474;19.034;2023-04-19T06:39:24;100185.53;;;15.85;46.57
62152;BME280;48139;47.474;19.034;2023-04-19T06:42:27;100182.72;;;15.99;45.12
62152;BME280;48139;47.474;19.034;2023-04-19T06:45:29;100178.44;;;15.98;45.44
62152;BME280;48139;47.474;19.034;2023-04-19T06:48:32;100178.38;;;16.11;44.42
62152;BME280;48139;47.474;19.034;2023-04-19T06:51:36;100168.31;;;16.16;43.56
62152;BME280;48139;47.474;19.034;2023-04-19T06:54:38;100179.28;;;16.23;42.63
62152;BME280;48139;47.474;19.034;2023-04-19T06:57:42;100174.72;;;16.25;42.99
62152;BME280;48139;47.474;19.034;2023-04-19T07:00:47;100171.84;;;16.28;42.24
62152;BME280;48139;47.474;19.034;2023-04-19T07:03:49;100172.84;;;16.38;42.35
62152;BME280;48139;47.474;19.034;2023-04-19T07:06:52;100165.87;;;16.37;42.20
62152;BME280;48139;47.474;19.034;2023-04-19T07:09:55;100170.38;;;16.47;42.16
62152;BME280;48139;47.474;19.034;2023-04-19T07:12:57;100159.22;;;16.79;41.32
62152;BME280;48139;47.474;19.034;2023-04-19T07:16:03;100162.16;;;16.98;40.18
62152;BME280;48139;47.474;19.034;2023-04-19T07:19:07;100166.59;;;16.98;40.25
62152;BME280;48139;47.474;19.034;2023-04-19T07:22:09;100160.47;;;16.97;39.22
62152;BME280;48139;47.474;19.034;2023-04-19T07:25:17;100153.34;;;16.86;39.90
62152;BME280;48139;47.474;19.034;2023-04-19T07:28:20;100155.66;;;17.02;38.28
62152;BME280;48139;47.474;19.034;2023-04-19T07:31:23;100150.38;;;17.13;37.35
62152;BME280;48139;47.474;19.034;2023-04-19T07:34:26;100154.00;;;17.23;36.37
62152;BME280;48139;47.474;19.034;2023-04-19T07:37:29;100146.31;;;17.43;37.96
62152;BME280;48139;47.474;19.034;2023-04-19T07:40:31;100144.25;;;17.46;38.42
62152;BME280;48139;47.474;19.034;2023-04-19T07:43:34;100144.50;;;17.54;37.71
62152;BME280;48139;47.474;19.034;2023-04-19T07:46:42;100150.53;;;17.79;38.13
62152;BME280;48139;47.474;19.034;2023-04-19T07:49:45;100144.38;;;17.78;35.08
62152;BME280;48139;47.474;19.034;2023-04-19T07:52:47;100138.56;;;17.95;34.32
62152;BME280;48139;47.474;19.034;2023-04-19T07:55:50;100139.03;;;18.64;33.58
62152;BME280;48139;47.474;19.034;2023-04-19T07:58:54;100137.88;;;18.57;35.61
62152;BME280;48139;47.474;19.034;2023-04-19T08:02:09;100138.31;;;18.83;35.45
62152;BME280;48139;47.474;19.034;2023-04-19T08:05:13;100133.75;;;18.85;31.36
62152;BME280;48139;47.474;19.034;2023-04-19T08:08:18;100134.31;;;18.68;32.12
62152;BME280;48139;47.474;19.034;2023-04-19T08:11:21;100138.22;;;18.52;32.79
62152;BME280;48139;47.474;19.034;2023-04-19T08:14:23;100140.94;;;18.09;32.94
62152;BME280;48139;47.474;19.034;2023-04-19T08:17:42;100141.13;;;17.86;32.82
62152;BME280;48139;47.474;19.034;2023-04-19T08:20:46;100139.22;;;17.65;34.57
62152;BME280;48139;47.474;19.034;2023-04-19T08:23:49;100140.38;;;17.50;34.69
62152;BME280;48139;47.474;19.034;2023-04-19T08:26:55;100136.78;;;17.51;35.16
62152;BME280;48139;47.474;19.034;2023-04-19T08:30:02;100143.78;;;17.41;37.74
62152;BME280;48139;47.474;19.034;2023-04-19T08:33:05;100144.00;;;17.49;36.57
62152;BME280;48139;47.474;19.034;2023-04-19T08:36:08;100139.91;;;17.45;36.95
62152;BME280;48139;47.474;19.034;2023-04-19T08:39:11;100141.22;;;17.51;38.96
62152;BME280;48139;47.474;19.034;2023-04-19T08:42:31;100139.44;;;17.51;39.74
62152;BME280;48139;47.474;19.034;2023-04-19T08:45:38;100141.00;;;17.54;37.70
62152;BME280;48139;47.474;19.034;2023-04-19T08:48:41;100134.84;;;17.76;38.54
62152;BME280;48139;47.474;19.034;2023-04-19T08:51:47;100132.16;;;17.98;38.57
62152;BME280;48139;47.474;19.034;2023-04-19T08:54:50;100127.72;;;17.87;37.84
62152;BME280;48139;47.474;19.034;2023-04-19T08:57:53;100127.19;;;17.61;38.47
62152;BME280;48139;47.474;19.034;2023-04-19T09:00:57;100124.75;;;17.58;39.57
62152;BME280;48139;47.474;19.034;2023-04-19T09:03:59;100124.41;;;17.41;40.82
62152;BME280;48139;47.474;19.034;2023-04-19T09:07:26;100126.69;;;17.45;41.00
62152;BME280;48139;47.474;19.034;2023-04-19T09:10:28;100119.69;;;17.44;42.23
62152;BME280;48139;47.474;19.034;2023-04-19T09:13:31;100114.13;;;17.81;42.18
62152;BME280;48139;47.474;19.034;2023-04-19T09:16:34;100122.31;;;17.89;41.18
62152;BME280;48139;47.474;19.034;2023-04-19T09:19:45;100116.88;;;17.90;40.66
62152;BME280;48139;47.474;19.034;2023-04-19T09:23:05;100125.37;;;17.73;40.90
62152;BME280;48139;47.474;19.034;2023-04-19T09:26:12;100120.53;;;17.33;41.89
62152;BME280;48139;47.474;19.034;2023-04-19T09:29:18;100124.25;;;17.31;41.25
62152;BME280;48139;47.474;19.034;2023-04-19T09:32:21;100108.97;;;17.46;43.15
62152;BME280;48139;47.474;19.034;2023-04-19T09:35:42;100106.41;;;17.89;40.79
62152;BME280;48139;47.474;19.034;2023-04-19T09:38:51;100100.38;;;18.30;41.00
62152;BME280;48139;47.474;19.034;2023-04-19T09:41:54;100098.53;;;18.62;40.75
62152;BME280;48139;47.474;19.034;2023-04-19T09:44:58;100096.03;;;18.49;39.11
62152;BME280;48139;47.474;19.034;2023-04-19T09:48:05;100088.34;;;18.88;41.08
62152;BME280;48139;47.474;19.034;2023-04-19T09:51:11;100094.44;;;19.40;41.52
62152;BME280;48139;47.474;19.034;2023-04-19T09:54:17;100094.53;;;19.59;41.13
62152;BME280;48139;47.474;19.034;2023-04-19T09:57:21;100090.97;;;20.08;40.02
62152;BME280;48139;47.474;19.034;2023-04-19T10:00:24;100089.69;;;19.93;41.21
62152;BME280;48139;47.474;19.034;2023-04-19T10:03:28;100077.41;;;20.21;40.72
62152;BME280;48139;47.474;19.034;2023-04-19T10:06:34;100091.13;;;20.16;37.88
62152;BME280;48139;47.474;19.034;2023-04-19T10:09:57;100078.84;;;20.34;38.94
62152;BME280;48139;47.474;19.034;2023-04-19T10:13:17;100079.38;;;20.38;38.47
62152;BME280;48139;47.474;19.034;2023-04-19T10:16:29;100078.78;;;20.25;40.30
62152;BME280;48139;47.474;19.034;2023-04-19T10:19:37;100077.56;;;20.29;38.05
62152;BME280;48139;47.474;19.034;2023-04-19T10:22:46;100070.28;;;19.92;37.90
62152;BME280;48139;47.474;19.034;2023-04-19T10:25:55;100067.19;;;19.97;38.23
62152;BME280;48139;47.474;19.034;2023-04-19T10:29:04;100065.50;;;20.25;37.04
62152;BME280;48139;47.474;19.034;2023-04-19T10:32:14;100073.75;;;20.31;36.19
62152;BME280;48139;47.474;19.034;2023-04-19T10:38:41;100058.19;;;20.56;35.54
62152;BME280;48139;47.474;19.034;2023-04-19T10:41:57;100064.50;;;20.26;34.09
62152;BME280;48139;47.474;19.034;2023-04-19T10:45:31;100066.03;;;19.61;40.04
62152;BME280;48139;47.474;19.034;2023-04-19T10:48:36;100072.31;;;18.69;45.02
62152;BME280;48139;47.474;19.034;2023-04-19T10:51:51;100065.75;;;18.10;47.55
62152;BME280;48139;47.474;19.034;2023-04-19T10:55:03;100067.53;;;17.78;49.39
62152;BME280;48139;47.474;19.034;2023-04-19T10:58:11;100072.72;;;17.57;47.18
62152;BME280;48139;47.474;19.034;2023-04-19T11:07:40;100070.13;;;17.13;49.65
62152;BME280;48139;47.474;19.034;2023-04-19T11:10:43;100068.06;;;16.94;50.46
62152;BME280;48139;47.474;19.034;2023-04-19T11:13:46;100067.47;;;17.02;47.85
62152;BME280;48139;47.474;19.034;2023-04-19T11:16:49;100057.37;;;17.07;47.22
62152;BME280;48139;47.474;19.034;2023-04-19T11:19:54;100066.50;;;17.14;48.82
62152;BME280;48139;47.474;19.034;2023-04-19T11:22:57;100054.59;;;17.30;45.60
62152;BME280;48139;47.474;19.034;2023-04-19T11:26:02;100055.78;;;17.38;44.22
62152;BME280;48139;47.474;19.034;2023-04-19T11:29:05;100055.66;;;17.39;45.69
62152;BME280;48139;47.474;19.034;2023-04-19T11:32:08;100061.44;;;17.44;47.05
62152;BME280;48139;47.474;19.034;2023-04-19T11:35:10;100052.50;;;17.56;46.44
62152;BME280;48139;47.474;19.034;2023-04-19T11:38:13;100057.47;;;17.61;46.41
62152;BME280;48139;47.474;19.034;2023-04-19T11:41:16;100054.44;;;17.65;47.22
62152;BME280;48139;47.474;19.034;2023-04-19T11:44:18;100051.78;;;17.65;43.27
62152;BME280;48139;47.474;19.034;2023-04-19T11:47:22;100052.25;;;17.70;46.07
62152;BME280;48139;47.474;19.034;2023-04-19T11:53:35;100058.06;;;17.96;49.93
62152;BME280;48139;47.474;19.034;2023-04-19T11:57:04;100050.84;;;18.19;50.76
62152;BME280;48139;47.474;19.034;2023-04-19T12:00:11;100051.19;;;18.05;50.17
62152;BME280;48139;47.474;19.034;2023-04-19T12:03:14;100051.25;;;18.14;50.95
62152;BME280;48139;47.474;19.034;2023-04-19T12:06:21;100047.13;;;17.90;50.28
62152;BME280;48139;47.474;19.034;2023-04-19T12:09:24;100058.78;;;17.66;51.92
62152;BME280;48139;47.474;19.034;2023-04-19T12:12:31;100050.84;;;17.44;53.22
62152;BME280;48139;47.474;19.034;2023-04-19T12:15:41;100052.25;;;17.59;52.10
62152;BME280;48139;47.474;19.034;2023-04-19T12:18:46;100050.53;;;17.81;51.53
62152;BME280;48139;47.474;19.034;2023-04-19T12:21:52;100045.06;;;17.61;52.49
62152;BME280;48139;47.474;19.034;2023-04-19T12:24:55;100044.09;;;17.51;53.01
62152;BME280;48139;47.474;19.034;2023-04-19T12:27:59;100048.41;;;17.52;53.85
62152;BME280;48139;47.474;19.034;2023-04-19T12:31:02;100036.91;;;17.42;53.58
62152;BME280;48139;47.474;19.034;2023-04-19T12:34:05;100044.13;;;17.29;55.80
62152;BME280;48139;47.474;19.034;2023-04-19T12:37:08;100035.69;;;17.46;56.09
62152;BME280;48139;47.474;19.034;2023-04-19T12:40:11;100046.72;;;17.73;54.07
62152;BME280;48139;47.474;19.034;2023-04-19T12:43:14;100039.69;;;17.84;56.53
62152;BME280;48139;47.474;19.034;2023-04-19T12:46:16;100030.16;;;18.13;52.88
62152;BME280;48139;47.474;19.034;2023-04-19T12:49:19;100027.59;;;18.64;49.89
62152;BME280;48139;47.474;19.034;2023-04-19T12:52:21;100031.31;;;19.13;49.45
62152;BME280;48139;47.474;19.034;2023-04-19T12:55:24;100023.13;;;18.95;48.33
62152;BME280;48139;47.474;19.034;2023-04-19T12:58:27;100026.31;;;18.59;49.75
62152;BME280;48139;47.474;19.034;2023-04-19T13:01:31;100020.91;;;18.49;48.46
62152;BME280;48139;47.474;19.034;2023-04-19T13:04:35;100015.06;;;18.66;48.25
62152;BME280;48139;47.474;19.034;2023-04-19T13:07:38;100023.94;;;18.86;45.16
62152;BME280;48139;47.474;19.034;2023-04-19T13:10:40;100015.25;;;19.14;48.41
62152;BME280;48139;47.474;19.034;2023-04-19T13:13:43;100013.19;;;19.37;46.95
62152;BME280;48139;47.474;19.034;2023-04-19T13:16:45;100021.56;;;19.72;46.08
62152;BME280;48139;47.474;19.034;2023-04-19T13:19:48;100014.13;;;19.76;43.78
62152;BME280;48139;47.474;19.034;2023-04-19T13:22:51;100015.38;;;19.62;42.24
62152;BME280;48139;47.474;19.034;2023-04-19T13:25:53;100011.62;;;19.65;42.33
62152;BME280;48139;47.474;19.034;2023-04-19T13:28:56;100009.56;;;19.38;42.99
62152;BME280;48139;47.474;19.034;2023-04-19T13:32:04;100010.84;;;19.34;42.74
62152;BME280;48139;47.474;19.034;2023-04-19T13:35:13;100010.94;;;19.23;45.02
62152;BME280;48139;47.474;19.034;2023-04-19T13:38:16;100002.81;;;19.24;45.79
62152;BME280;48139;47.474;19.034;2023-04-19T13:41:19;100006.97;;;19.57;44.01
62152;BME280;48139;47.474;19.034;2023-04-19T13:44:22;100002.53;;;19.77;42.61
62152;BME280;48139;47.474;19.034;2023-04-19T13:47:26;100014.84;;;19.78;46.09
62152;BME280;48139;47.474;19.034;2023-04-19T13:50:29;100004.19;;;20.07;47.44
62152;BME280;48139;47.474;19.034;2023-04-19T13:53:36;100004.34;;;20.15;42.84
62152;BME280;48139;47.474;19.034;2023-04-19T13:56:39;100012.72;;;20.20;45.21
62152;BME280;48139;47.474;19.034;2023-04-19T13:59:41;100005.34;;;19.85;47.23
62152;BME280;48139;47.474;19.034;2023-04-19T14:02:44;99997.56;;;19.44;49.91
62152;BME280;48139;47.474;19.034;2023-04-19T14:05:47;99996.88;;;19.42;51.25
62152;BME280;48139;47.474;19.034;2023-04-19T14:08:50;99999.31;;;19.73;50.30
62152;BME280;48139;47.474;19.034;2023-04-19T14:11:53;100000.03;;;19.85;50.05
62152;BME280;48139;47.474;19.034;2023-04-19T14:14:55;99998.03;;;19.87;50.54
62152;BME280;48139;47.474;19.034;2023-04-19T14:17:59;100000.75;;;19.28;51.76
62152;BME280;48139;47.474;19.034;2023-04-19T14:21:02;100006.13;;;19.07;52.66
62152;BME280;48139;47.474;19.034;2023-04-19T14:24:04;100003.47;;;18.67;53.68
62152;BME280;48139;47.474;19.034;2023-04-19T14:27:07;100003.31;;;18.69;53.03
62152;BME280;48139;47.474;19.034;2023-04-19T14:30:13;99999.41;;;18.42;55.42
62152;BME280;48139;47.474;19.034;2023-04-19T14:33:15;99998.25;;;18.35;55.40
62152;BME280;48139;47.474;19.034;2023-04-19T14:36:18;100000.94;;;18.45;55.66
62152;BME280;48139;47.474;19.034;2023-04-19T14:39:26;99996.75;;;18.22;55.59
62152;BME280;48139;47.474;19.034;2023-04-19T14:42:33;100003.59;;;18.45;55.82
62152;BME280;48139;47.474;19.034;2023-04-19T14:45:36;100006.78;;;18.60;56.71
62152;BME280;48139;47.474;19.034;2023-04-19T14:48:39;100000.37;;;18.41;56.04
62152;BME280;48139;47.474;19.034;2023-04-19T14:51:42;100005.53;;;18.22;56.83
62152;BME280;48139;47.474;19.034;2023-04-19T14:54:45;100016.37;;;18.19;56.97
62152;BME280;48139;47.474;19.034;2023-04-19T14:57:47;100015.56;;;18.19;55.30
62152;BME280;48139;47.474;19.034;2023-04-19T15:00:50;100023.37;;;18.20;55.03
62152;BME280;48139;47.474;19.034;2023-04-19T15:03:52;100013.81;;;18.08;53.53
62152;BME280;48139;47.474;19.034;2023-04-19T15:06:58;100016.22;;;18.11;53.98
62152;BME280;48139;47.474;19.034;2023-04-19T15:10:00;100017.63;;;18.15;52.62
62152;BME280;48139;47.474;19.034;2023-04-19T15:13:03;100019.75;;;18.21;52.22
62152;BME280;48139;47.474;19.034;2023-04-19T15:16:06;100020.91;;;18.07;52.23
62152;BME280;48139;47.474;19.034;2023-04-19T15:19:09;100037.94;;;18.05;52.94
62152;BME280;48139;47.474;19.034;2023-04-19T15:22:11;100025.69;;;18.13;52.81
62152;BME280;48139;47.474;19.034;2023-04-19T15:25:14;100031.06;;;18.02;52.78
62152;BME280;48139;47.474;19.034;2023-04-19T15:28:17;100037.59;;;17.66;53.79
62152;BME280;48139;47.474;19.034;2023-04-19T15:31:19;100031.81;;;17.50;53.02
62152;BME280;48139;47.474;19.034;2023-04-19T15:34:22;100035.06;;;17.54;54.80
62152;BME280;48139;47.474;19.034;2023-04-19T15:37:26;100043.63;;;17.46;54.76
62152;BME280;48139;47.474;19.034;2023-04-19T15:40:29;100049.88;;;17.45;54.73
62152;BME280;48139;47.474;19.034;2023-04-19T15:43:31;100042.66;;;17.47;55.06
62152;BME280;48139;47.474;19.034;2023-04-19T15:46:34;100047.72;;;17.39;56.50
62152;BME280;48139;47.474;19.034;2023-04-19T15:49:37;100046.03;;;17.38;55.82
